首页
METAR-TAF:

METAR-TAF

机场 :

Pond Inlet, 努那武特, 加拿大

纬度: 72-42N, 经度: 077-58W, 海拔: 59米

当前天气观测

该预报发布于58分钟前的20:00 UTC
风速8节,风向南转南东
温度 -24°C
湿度 76%
气压 1005 hPa
能見度: 24.1公里
少量云层高于4600英尺
少量云层高于7600英尺
散云层高于25000英尺

METAR: CYIO 132000Z CCA 15008KT 15SM FEW046 FEW076 SCT250 M24/M27 A2968 RMK SC1AC1CC1 FROIN SLP061

时间: 15:58 (20:58 UTC)

预报

该预报发布于2小时和20分钟前的18:38 UTC
预报有效从13日的 19点(UTC)到 14日的 07点(UTC)
风速3节,风向多变
能見度: 10公里
少量云层高于5000英尺

TAF: CYIO 131838Z 1319/1407 VRB03KT P6SM FEW050 RMK NXT FCST BY 140100Z

超过4000个机场的气象观测和天气预报(METAR&TAF报告)。

可查询的气象台以黄色和红色小点在地图上表示。

将鼠标移到小点上方,可查看气象台名称。

然后点击查看天气观测和预报。

如需切换地图:点击带黑十字的绿色按钮放大地图;点击带横线的绿色按钮缩小地图;或者点击绿色箭头查看邻近地区的地图。


METAR-TAF: